sensor_id;sensor_type;location;lat;lon;timestamp;P1;durP1;ratioP1;P2;durP2;ratioP2
18383;SDS011;9318;48.644;9.456;2022-12-18T00:01:14;67.23;;;26.03;;
18383;SDS011;9318;48.644;9.456;2022-12-18T00:03:43;73.40;;;25.10;;
18383;SDS011;9318;48.644;9.456;2022-12-18T00:06:11;61.77;;;24.00;;
18383;SDS011;9318;48.644;9.456;2022-12-18T00:08:38;61.77;;;23.70;;
18383;SDS011;9318;48.644;9.456;2022-12-18T00:11:07;56.47;;;22.53;;
18383;SDS011;9318;48.644;9.456;2022-12-18T00:13:37;64.87;;;23.97;;
18383;SDS011;9318;48.644;9.456;2022-12-18T00:16:05;61.43;;;22.67;;
18383;SDS011;9318;48.644;9.456;2022-12-18T00:18:33;55.43;;;21.87;;
18383;SDS011;9318;48.644;9.456;2022-12-18T00:21:01;68.53;;;24.53;;
18383;SDS011;9318;48.644;9.456;2022-12-18T00:23:32;74.80;;;27.60;;
18383;SDS011;9318;48.644;9.456;2022-12-18T00:26:01;75.00;;;26.50;;
18383;SDS011;9318;48.644;9.456;2022-12-18T00:28:30;67.27;;;24.37;;
18383;SDS011;9318;48.644;9.456;2022-12-18T00:31:03;71.90;;;26.07;;
18383;SDS011;9318;48.644;9.456;2022-12-18T00:33:31;59.57;;;23.27;;
18383;SDS011;9318;48.644;9.456;2022-12-18T00:36:00;67.47;;;25.77;;
18383;SDS011;9318;48.644;9.456;2022-12-18T00:38:27;62.37;;;23.77;;
18383;SDS011;9318;48.644;9.456;2022-12-18T00:40:55;63.43;;;26.37;;
18383;SDS011;9318;48.644;9.456;2022-12-18T00:43:22;65.40;;;26.07;;
18383;SDS011;9318;48.644;9.456;2022-12-18T00:45:48;64.00;;;24.90;;
18383;SDS011;9318;48.644;9.456;2022-12-18T00:48:17;64.97;;;25.57;;
18383;SDS011;9318;48.644;9.456;2022-12-18T00:50:44;65.67;;;25.60;;
18383;SDS011;9318;48.644;9.456;2022-12-18T00:53:11;65.83;;;24.20;;
18383;SDS011;9318;48.644;9.456;2022-12-18T00:55:39;74.33;;;26.90;;
18383;SDS011;9318;48.644;9.456;2022-12-18T00:58:07;65.10;;;24.90;;
18383;SDS011;9318;48.644;9.456;2022-12-18T01:00:35;65.83;;;25.00;;
18383;SDS011;9318;48.644;9.456;2022-12-18T01:03:03;70.53;;;24.30;;
18383;SDS011;9318;48.644;9.456;2022-12-18T01:05:32;67.27;;;25.50;;
18383;SDS011;9318;48.644;9.456;2022-12-18T01:08:00;67.27;;;25.80;;
18383;SDS011;9318;48.644;9.456;2022-12-18T01:10:27;67.37;;;26.10;;
18383;SDS011;9318;48.644;9.456;2022-12-18T01:12:54;71.87;;;25.73;;
18383;SDS011;9318;48.644;9.456;2022-12-18T01:15:22;57.23;;;21.50;;
18383;SDS011;9318;48.644;9.456;2022-12-18T01:17:51;58.03;;;20.30;;
18383;SDS011;9318;48.644;9.456;2022-12-18T01:20:19;68.40;;;23.43;;
18383;SDS011;9318;48.644;9.456;2022-12-18T01:22:48;58.50;;;21.00;;
18383;SDS011;9318;48.644;9.456;2022-12-18T01:25:15;62.80;;;21.27;;
18383;SDS011;9318;48.644;9.456;2022-12-18T01:27:42;57.10;;;20.13;;
18383;SDS011;9318;48.644;9.456;2022-12-18T01:30:10;57.70;;;21.70;;
18383;SDS011;9318;48.644;9.456;2022-12-18T01:32:37;61.30;;;21.03;;
18383;SDS011;9318;48.644;9.456;2022-12-18T01:35:05;57.00;;;21.50;;
18383;SDS011;9318;48.644;9.456;2022-12-18T01:37:33;66.07;;;21.93;;
18383;SDS011;9318;48.644;9.456;2022-12-18T01:40:02;64.90;;;21.30;;
18383;SDS011;9318;48.644;9.456;2022-12-18T01:42:30;70.03;;;22.83;;
18383;SDS011;9318;48.644;9.456;2022-12-18T01:45:04;60.33;;;21.40;;
18383;SDS011;9318;48.644;9.456;2022-12-18T01:47:49;72.90;;;22.43;;
18383;SDS011;9318;48.644;9.456;2022-12-18T01:50:21;65.97;;;23.90;;
18383;SDS011;9318;48.644;9.456;2022-12-18T01:52:51;62.67;;;22.27;;
18383;SDS011;9318;48.644;9.456;2022-12-18T01:55:23;67.10;;;23.37;;
18383;SDS011;9318;48.644;9.456;2022-12-18T01:57:52;62.00;;;23.60;;
18383;SDS011;9318;48.644;9.456;2022-12-18T02:00:22;68.53;;;24.00;;
18383;SDS011;9318;48.644;9.456;2022-12-18T02:02:51;63.30;;;23.60;;
18383;SDS011;9318;48.644;9.456;2022-12-18T02:05:21;71.43;;;24.93;;
18383;SDS011;9318;48.644;9.456;2022-12-18T02:07:56;64.13;;;23.70;;
18383;SDS011;9318;48.644;9.456;2022-12-18T02:10:33;65.70;;;23.33;;
18383;SDS011;9318;48.644;9.456;2022-12-18T02:13:07;71.83;;;23.83;;
18383;SDS011;9318;48.644;9.456;2022-12-18T02:15:40;78.13;;;24.93;;
18383;SDS011;9318;48.644;9.456;2022-12-18T02:18:18;69.93;;;24.10;;
18383;SDS011;9318;48.644;9.456;2022-12-18T02:20:48;67.93;;;24.17;;
18383;SDS011;9318;48.644;9.456;2022-12-18T02:23:38;63.60;;;21.47;;
18383;SDS011;9318;48.644;9.456;2022-12-18T02:26:19;67.07;;;22.90;;
18383;SDS011;9318;48.644;9.456;2022-12-18T02:28:51;60.10;;;21.87;;
18383;SDS011;9318;48.644;9.456;2022-12-18T02:31:24;63.57;;;22.50;;
18383;SDS011;9318;48.644;9.456;2022-12-18T02:33:55;62.43;;;21.30;;
18383;SDS011;9318;48.644;9.456;2022-12-18T02:36:26;59.30;;;22.07;;
18383;SDS011;9318;48.644;9.456;2022-12-18T02:38:55;61.97;;;21.03;;
18383;SDS011;9318;48.644;9.456;2022-12-18T02:41:26;61.30;;;20.43;;
18383;SDS011;9318;48.644;9.456;2022-12-18T02:43:55;59.07;;;20.90;;
18383;SDS011;9318;48.644;9.456;2022-12-18T02:46:28;57.60;;;20.97;;
18383;SDS011;9318;48.644;9.456;2022-12-18T02:49:01;54.00;;;18.30;;
18383;SDS011;9318;48.644;9.456;2022-12-18T02:51:37;60.17;;;20.77;;
18383;SDS011;9318;48.644;9.456;2022-12-18T02:54:15;59.47;;;19.33;;
18383;SDS011;9318;48.644;9.456;2022-12-18T02:56:51;65.80;;;22.03;;
18383;SDS011;9318;48.644;9.456;2022-12-18T02:59:24;60.23;;;20.60;;
18383;SDS011;9318;48.644;9.456;2022-12-18T03:01:58;60.73;;;22.30;;
18383;SDS011;9318;48.644;9.456;2022-12-18T03:04:33;58.57;;;20.47;;
18383;SDS011;9318;48.644;9.456;2022-12-18T03:07:08;58.37;;;21.23;;
18383;SDS011;9318;48.644;9.456;2022-12-18T03:09:39;52.80;;;20.53;;
18383;SDS011;9318;48.644;9.456;2022-12-18T03:12:12;49.83;;;18.90;;
18383;SDS011;9318;48.644;9.456;2022-12-18T03:14:50;54.40;;;18.87;;
18383;SDS011;9318;48.644;9.456;2022-12-18T03:17:23;54.13;;;18.90;;
18383;SDS011;9318;48.644;9.456;2022-12-18T03:19:52;52.33;;;19.47;;
18383;SDS011;9318;48.644;9.456;2022-12-18T03:22:23;57.07;;;20.43;;
18383;SDS011;9318;48.644;9.456;2022-12-18T03:28:12;56.80;;;19.60;;
18383;SDS011;9318;48.644;9.456;2022-12-18T03:30:42;51.77;;;17.23;;
18383;SDS011;9318;48.644;9.456;2022-12-18T03:33:12;53.43;;;19.10;;
18383;SDS011;9318;48.644;9.456;2022-12-18T03:35:44;50.30;;;20.00;;
18383;SDS011;9318;48.644;9.456;2022-12-18T03:38:12;45.57;;;17.87;;
18383;SDS011;9318;48.644;9.456;2022-12-18T03:40:43;50.73;;;17.33;;
18383;SDS011;9318;48.644;9.456;2022-12-18T03:43:20;48.00;;;17.70;;
18383;SDS011;9318;48.644;9.456;2022-12-18T03:45:57;43.20;;;17.53;;
18383;SDS011;9318;48.644;9.456;2022-12-18T03:48:32;50.73;;;17.33;;
18383;SDS011;9318;48.644;9.456;2022-12-18T03:51:05;44.03;;;17.30;;
18383;SDS011;9318;48.644;9.456;2022-12-18T03:53:39;44.30;;;17.70;;
18383;SDS011;9318;48.644;9.456;2022-12-18T03:56:13;47.27;;;15.90;;
18383;SDS011;9318;48.644;9.456;2022-12-18T03:58:44;45.10;;;17.23;;
18383;SDS011;9318;48.644;9.456;2022-12-18T04:01:13;48.53;;;17.83;;
18383;SDS011;9318;48.644;9.456;2022-12-18T04:03:42;51.73;;;17.50;;
18383;SDS011;9318;48.644;9.456;2022-12-18T04:06:12;59.17;;;21.43;;
18383;SDS011;9318;48.644;9.456;2022-12-18T04:08:41;47.93;;;18.73;;
18383;SDS011;9318;48.644;9.456;2022-12-18T04:11:09;52.63;;;18.53;;
18383;SDS011;9318;48.644;9.456;2022-12-18T04:13:36;56.73;;;20.00;;
18383;SDS011;9318;48.644;9.456;2022-12-18T04:16:06;58.60;;;21.10;;
18383;SDS011;9318;48.644;9.456;2022-12-18T04:18:34;60.47;;;19.93;;
18383;SDS011;9318;48.644;9.456;2022-12-18T04:21:03;54.23;;;19.43;;
18383;SDS011;9318;48.644;9.456;2022-12-18T04:23:30;80.50;;;22.73;;
18383;SDS011;9318;48.644;9.456;2022-12-18T04:25:57;62.73;;;19.50;;
18383;SDS011;9318;48.644;9.456;2022-12-18T04:28:24;61.27;;;20.33;;
18383;SDS011;9318;48.644;9.456;2022-12-18T04:30:51;63.27;;;21.27;;
18383;SDS011;9318;48.644;9.456;2022-12-18T04:33:19;64.83;;;20.83;;
18383;SDS011;9318;48.644;9.456;2022-12-18T04:35:46;59.03;;;20.00;;
18383;SDS011;9318;48.644;9.456;2022-12-18T04:38:13;69.70;;;21.77;;
18383;SDS011;9318;48.644;9.456;2022-12-18T04:40:41;60.37;;;22.20;;
18383;SDS011;9318;48.644;9.456;2022-12-18T04:43:08;66.43;;;21.83;;
18383;SDS011;9318;48.644;9.456;2022-12-18T04:45:35;63.87;;;22.07;;
18383;SDS011;9318;48.644;9.456;2022-12-18T04:48:03;56.90;;;20.87;;
18383;SDS011;9318;48.644;9.456;2022-12-18T04:50:32;57.93;;;21.33;;
18383;SDS011;9318;48.644;9.456;2022-12-18T04:52:58;63.77;;;22.07;;
18383;SDS011;9318;48.644;9.456;2022-12-18T04:55:26;65.47;;;21.70;;
18383;SDS011;9318;48.644;9.456;2022-12-18T04:57:53;61.17;;;20.00;;
18383;SDS011;9318;48.644;9.456;2022-12-18T05:00:20;61.90;;;22.27;;
18383;SDS011;9318;48.644;9.456;2022-12-18T05:02:47;61.50;;;21.53;;
18383;SDS011;9318;48.644;9.456;2022-12-18T05:05:14;58.13;;;19.73;;
18383;SDS011;9318;48.644;9.456;2022-12-18T05:07:43;64.47;;;21.47;;
18383;SDS011;9318;48.644;9.456;2022-12-18T05:10:10;59.43;;;21.53;;
18383;SDS011;9318;48.644;9.456;2022-12-18T05:12:37;61.27;;;21.43;;
18383;SDS011;9318;48.644;9.456;2022-12-18T05:15:23;51.47;;;19.20;;
18383;SDS011;9318;48.644;9.456;2022-12-18T05:17:51;56.17;;;20.93;;
18383;SDS011;9318;48.644;9.456;2022-12-18T05:20:18;59.50;;;21.17;;
18383;SDS011;9318;48.644;9.456;2022-12-18T05:22:47;59.30;;;20.70;;
18383;SDS011;9318;48.644;9.456;2022-12-18T05:25:14;52.90;;;19.43;;
18383;SDS011;9318;48.644;9.456;2022-12-18T05:27:41;58.50;;;20.60;;
18383;SDS011;9318;48.644;9.456;2022-12-18T05:30:09;61.67;;;22.53;;
18383;SDS011;9318;48.644;9.456;2022-12-18T05:32:36;58.17;;;20.17;;
18383;SDS011;9318;48.644;9.456;2022-12-18T05:35:05;59.40;;;20.77;;
18383;SDS011;9318;48.644;9.456;2022-12-18T05:37:33;54.13;;;19.53;;
18383;SDS011;9318;48.644;9.456;2022-12-18T05:40:02;53.80;;;19.67;;
18383;SDS011;9318;48.644;9.456;2022-12-18T05:42:30;52.77;;;20.33;;
18383;SDS011;9318;48.644;9.456;2022-12-18T05:44:57;57.03;;;20.10;;
18383;SDS011;9318;48.644;9.456;2022-12-18T05:47:24;58.60;;;20.87;;
18383;SDS011;9318;48.644;9.456;2022-12-18T05:49:52;56.33;;;19.77;;
18383;SDS011;9318;48.644;9.456;2022-12-18T05:52:19;52.57;;;20.27;;
18383;SDS011;9318;48.644;9.456;2022-12-18T05:54:47;52.70;;;20.00;;
18383;SDS011;9318;48.644;9.456;2022-12-18T05:57:15;51.10;;;19.20;;
18383;SDS011;9318;48.644;9.456;2022-12-18T05:59:42;56.33;;;20.20;;
18383;SDS011;9318;48.644;9.456;2022-12-18T06:02:10;55.27;;;20.23;;
18383;SDS011;9318;48.644;9.456;2022-12-18T06:04:37;50.73;;;19.43;;
18383;SDS011;9318;48.644;9.456;2022-12-18T06:07:04;53.73;;;19.53;;
18383;SDS011;9318;48.644;9.456;2022-12-18T06:09:31;58.10;;;20.83;;
18383;SDS011;9318;48.644;9.456;2022-12-18T06:11:58;49.97;;;18.60;;
18383;SDS011;9318;48.644;9.456;2022-12-18T06:14:27;48.63;;;18.50;;
18383;SDS011;9318;48.644;9.456;2022-12-18T06:16:54;52.07;;;18.10;;
18383;SDS011;9318;48.644;9.456;2022-12-18T06:19:21;55.20;;;17.97;;
18383;SDS011;9318;48.644;9.456;2022-12-18T06:21:49;51.20;;;19.60;;
18383;SDS011;9318;48.644;9.456;2022-12-18T06:24:16;52.10;;;19.03;;
18383;SDS011;9318;48.644;9.456;2022-12-18T06:26:43;47.80;;;17.73;;
18383;SDS011;9318;48.644;9.456;2022-12-18T06:29:10;52.67;;;19.80;;
18383;SDS011;9318;48.644;9.456;2022-12-18T06:31:39;50.17;;;17.70;;
18383;SDS011;9318;48.644;9.456;2022-12-18T06:34:06;45.67;;;17.60;;
18383;SDS011;9318;48.644;9.456;2022-12-18T06:36:33;43.40;;;17.00;;
18383;SDS011;9318;48.644;9.456;2022-12-18T06:39:00;43.90;;;17.00;;
18383;SDS011;9318;48.644;9.456;2022-12-18T06:41:28;46.67;;;17.83;;
18383;SDS011;9318;48.644;9.456;2022-12-18T06:43:55;44.23;;;16.63;;
18383;SDS011;9318;48.644;9.456;2022-12-18T06:46:24;42.90;;;17.30;;
18383;SDS011;9318;48.644;9.456;2022-12-18T06:48:52;52.47;;;18.60;;
18383;SDS011;9318;48.644;9.456;2022-12-18T06:51:19;44.23;;;16.57;;
18383;SDS011;9318;48.644;9.456;2022-12-18T06:53:48;49.67;;;17.97;;
18383;SDS011;9318;48.644;9.456;2022-12-18T06:56:15;46.23;;;17.83;;
18383;SDS011;9318;48.644;9.456;2022-12-18T06:58:42;47.60;;;18.27;;
18383;SDS011;9318;48.644;9.456;2022-12-18T07:01:10;49.80;;;18.93;;
18383;SDS011;9318;48.644;9.456;2022-12-18T07:03:38;56.13;;;19.33;;
18383;SDS011;9318;48.644;9.456;2022-12-18T07:06:11;51.00;;;18.23;;
18383;SDS011;9318;48.644;9.456;2022-12-18T07:08:40;57.87;;;20.90;;
18383;SDS011;9318;48.644;9.456;2022-12-18T07:11:07;48.90;;;19.20;;
18383;SDS011;9318;48.644;9.456;2022-12-18T07:13:34;55.17;;;20.17;;
18383;SDS011;9318;48.644;9.456;2022-12-18T07:16:05;55.90;;;20.13;;
18383;SDS011;9318;48.644;9.456;2022-12-18T07:18:33;52.73;;;20.80;;
18383;SDS011;9318;48.644;9.456;2022-12-18T07:21:03;54.70;;;20.40;;
18383;SDS011;9318;48.644;9.456;2022-12-18T07:23:33;49.03;;;18.27;;
18383;SDS011;9318;48.644;9.456;2022-12-18T07:26:02;44.67;;;17.23;;
18383;SDS011;9318;48.644;9.456;2022-12-18T07:28:30;49.70;;;17.37;;
18383;SDS011;9318;48.644;9.456;2022-12-18T07:30:57;48.20;;;17.87;;
18383;SDS011;9318;48.644;9.456;2022-12-18T07:33:25;50.37;;;18.87;;
18383;SDS011;9318;48.644;9.456;2022-12-18T07:35:52;45.27;;;17.63;;
18383;SDS011;9318;48.644;9.456;2022-12-18T07:38:19;45.83;;;18.23;;
18383;SDS011;9318;48.644;9.456;2022-12-18T07:40:47;56.30;;;20.20;;
18383;SDS011;9318;48.644;9.456;2022-12-18T07:43:14;60.60;;;20.70;;
18383;SDS011;9318;48.644;9.456;2022-12-18T07:45:42;51.43;;;19.67;;
18383;SDS011;9318;48.644;9.456;2022-12-18T07:48:09;50.30;;;19.57;;
18383;SDS011;9318;48.644;9.456;2022-12-18T07:50:37;62.90;;;23.33;;
18383;SDS011;9318;48.644;9.456;2022-12-18T07:53:04;63.80;;;20.73;;
18383;SDS011;9318;48.644;9.456;2022-12-18T07:55:31;47.83;;;17.40;;
18383;SDS011;9318;48.644;9.456;2022-12-18T07:58:02;50.93;;;20.07;;
18383;SDS011;9318;48.644;9.456;2022-12-18T08:00:30;59.10;;;21.20;;
18383;SDS011;9318;48.644;9.456;2022-12-18T08:02:57;48.20;;;18.63;;
18383;SDS011;9318;48.644;9.456;2022-12-18T08:05:24;43.23;;;18.43;;
18383;SDS011;9318;48.644;9.456;2022-12-18T08:07:52;61.33;;;21.17;;
18383;SDS011;9318;48.644;9.456;2022-12-18T08:10:19;61.67;;;20.57;;
18383;SDS011;9318;48.644;9.456;2022-12-18T08:12:48;54.93;;;19.47;;
18383;SDS011;9318;48.644;9.456;2022-12-18T08:15:17;59.33;;;20.93;;
18383;SDS011;9318;48.644;9.456;2022-12-18T08:17:45;58.73;;;19.37;;
18383;SDS011;9318;48.644;9.456;2022-12-18T08:20:12;50.17;;;19.40;;
18383;SDS011;9318;48.644;9.456;2022-12-18T08:22:40;56.57;;;22.53;;
18383;SDS011;9318;48.644;9.456;2022-12-18T08:25:08;51.43;;;18.90;;
18383;SDS011;9318;48.644;9.456;2022-12-18T08:27:35;50.73;;;20.30;;
18383;SDS011;9318;48.644;9.456;2022-12-18T08:30:03;57.90;;;21.77;;
18383;SDS011;9318;48.644;9.456;2022-12-18T08:32:33;60.43;;;21.63;;
18383;SDS011;9318;48.644;9.456;2022-12-18T08:35:00;58.97;;;21.03;;
18383;SDS011;9318;48.644;9.456;2022-12-18T08:37:27;53.63;;;22.87;;
18383;SDS011;9318;48.644;9.456;2022-12-18T08:39:54;56.30;;;23.00;;
18383;SDS011;9318;48.644;9.456;2022-12-18T08:42:21;56.40;;;21.83;;
18383;SDS011;9318;48.644;9.456;2022-12-18T08:45:06;59.20;;;23.70;;
18383;SDS011;9318;48.644;9.456;2022-12-18T08:47:35;54.40;;;22.17;;
18383;SDS011;9318;48.644;9.456;2022-12-18T08:50:02;61.37;;;22.77;;
18383;SDS011;9318;48.644;9.456;2022-12-18T08:52:31;56.40;;;22.17;;
18383;SDS011;9318;48.644;9.456;2022-12-18T08:54:58;58.53;;;24.20;;
18383;SDS011;9318;48.644;9.456;2022-12-18T08:57:25;58.10;;;22.93;;
18383;SDS011;9318;48.644;9.456;2022-12-18T08:59:52;61.17;;;22.33;;
18383;SDS011;9318;48.644;9.456;2022-12-18T09:02:20;54.70;;;24.20;;
18383;SDS011;9318;48.644;9.456;2022-12-18T09:04:48;52.90;;;22.20;;
18383;SDS011;9318;48.644;9.456;2022-12-18T09:07:15;56.50;;;23.37;;
18383;SDS011;9318;48.644;9.456;2022-12-18T09:09:42;54.43;;;22.53;;
18383;SDS011;9318;48.644;9.456;2022-12-18T09:12:10;53.20;;;21.70;;
18383;SDS011;9318;48.644;9.456;2022-12-18T09:14:37;56.07;;;23.87;;
18383;SDS011;9318;48.644;9.456;2022-12-18T09:17:04;53.07;;;22.97;;
18383;SDS011;9318;48.644;9.456;2022-12-18T09:19:31;62.17;;;24.57;;
18383;SDS011;9318;48.644;9.456;2022-12-18T09:22:00;61.63;;;26.37;;
18383;SDS011;9318;48.644;9.456;2022-12-18T09:24:27;60.20;;;25.00;;
18383;SDS011;9318;48.644;9.456;2022-12-18T09:26:54;59.87;;;24.53;;
18383;SDS011;9318;48.644;9.456;2022-12-18T09:29:21;60.30;;;25.87;;
18383;SDS011;9318;48.644;9.456;2022-12-18T09:31:48;58.17;;;24.17;;
18383;SDS011;9318;48.644;9.456;2022-12-18T09:34:15;65.17;;;24.40;;
18383;SDS011;9318;48.644;9.456;2022-12-18T09:36:43;57.10;;;24.23;;
18383;SDS011;9318;48.644;9.456;2022-12-18T09:39:12;53.07;;;22.57;;
18383;SDS011;9318;48.644;9.456;2022-12-18T09:41:40;57.47;;;24.23;;
18383;SDS011;9318;48.644;9.456;2022-12-18T09:44:17;58.47;;;24.73;;
18383;SDS011;9318;48.644;9.456;2022-12-18T09:46:49;61.00;;;25.87;;
18383;SDS011;9318;48.644;9.456;2022-12-18T09:49:20;60.43;;;25.67;;
18383;SDS011;9318;48.644;9.456;2022-12-18T09:51:50;54.87;;;25.23;;
18383;SDS011;9318;48.644;9.456;2022-12-18T09:54:24;64.27;;;25.53;;
18383;SDS011;9318;48.644;9.456;2022-12-18T09:56:58;58.23;;;26.10;;
18383;SDS011;9318;48.644;9.456;2022-12-18T09:59:25;59.73;;;27.13;;
18383;SDS011;9318;48.644;9.456;2022-12-18T10:01:56;63.13;;;27.40;;
18383;SDS011;9318;48.644;9.456;2022-12-18T10:04:23;61.53;;;28.90;;
18383;SDS011;9318;48.644;9.456;2022-12-18T10:06:52;60.17;;;26.57;;
18383;SDS011;9318;48.644;9.456;2022-12-18T10:09:30;60.50;;;27.30;;
18383;SDS011;9318;48.644;9.456;2022-12-18T10:12:05;63.80;;;30.07;;
18383;SDS011;9318;48.644;9.456;2022-12-18T10:14:43;65.67;;;32.53;;
18383;SDS011;9318;48.644;9.456;2022-12-18T10:17:18;73.13;;;32.37;;
18383;SDS011;9318;48.644;9.456;2022-12-18T10:19:54;65.57;;;30.37;;
18383;SDS011;9318;48.644;9.456;2022-12-18T10:22:28;68.17;;;31.20;;
18383;SDS011;9318;48.644;9.456;2022-12-18T10:25:12;67.77;;;31.43;;
18383;SDS011;9318;48.644;9.456;2022-12-18T10:27:45;73.20;;;32.30;;
18383;SDS011;9318;48.644;9.456;2022-12-18T10:30:13;61.37;;;29.37;;
18383;SDS011;9318;48.644;9.456;2022-12-18T10:32:42;67.50;;;31.70;;
18383;SDS011;9318;48.644;9.456;2022-12-18T10:35:12;66.10;;;30.30;;
18383;SDS011;9318;48.644;9.456;2022-12-18T10:40:32;65.83;;;30.33;;
18383;SDS011;9318;48.644;9.456;2022-12-18T10:43:14;63.30;;;30.67;;
18383;SDS011;9318;48.644;9.456;2022-12-18T10:45:57;62.37;;;31.03;;
18383;SDS011;9318;48.644;9.456;2022-12-18T10:48:33;57.53;;;29.30;;
18383;SDS011;9318;48.644;9.456;2022-12-18T10:51:02;63.13;;;31.37;;
18383;SDS011;9318;48.644;9.456;2022-12-18T10:53:30;64.90;;;31.43;;
18383;SDS011;9318;48.644;9.456;2022-12-18T10:56:00;61.00;;;31.47;;
18383;SDS011;9318;48.644;9.456;2022-12-18T10:58:31;108.53;;;49.70;;
18383;SDS011;9318;48.644;9.456;2022-12-18T11:01:08;67.70;;;35.63;;
18383;SDS011;9318;48.644;9.456;2022-12-18T11:03:37;62.20;;;35.30;;
18383;SDS011;9318;48.644;9.456;2022-12-18T11:06:07;62.10;;;33.33;;
18383;SDS011;9318;48.644;9.456;2022-12-18T11:08:36;57.57;;;31.70;;
18383;SDS011;9318;48.644;9.456;2022-12-18T11:11:15;67.90;;;33.63;;
18383;SDS011;9318;48.644;9.456;2022-12-18T11:13:54;65.37;;;33.83;;
18383;SDS011;9318;48.644;9.456;2022-12-18T11:16:29;69.00;;;33.73;;
18383;SDS011;9318;48.644;9.456;2022-12-18T11:19:17;64.27;;;32.20;;
18383;SDS011;9318;48.644;9.456;2022-12-18T11:21:49;63.33;;;32.40;;
18383;SDS011;9318;48.644;9.456;2022-12-18T11:24:19;68.00;;;33.83;;
18383;SDS011;9318;48.644;9.456;2022-12-18T11:26:59;62.50;;;31.37;;
18383;SDS011;9318;48.644;9.456;2022-12-18T11:29:31;59.13;;;30.13;;
18383;SDS011;9318;48.644;9.456;2022-12-18T11:32:20;63.30;;;30.30;;
18383;SDS011;9318;48.644;9.456;2022-12-18T11:34:55;71.33;;;33.00;;
18383;SDS011;9318;48.644;9.456;2022-12-18T11:37:27;62.30;;;31.73;;
18383;SDS011;9318;48.644;9.456;2022-12-18T11:39:56;62.90;;;32.37;;
18383;SDS011;9318;48.644;9.456;2022-12-18T11:42:30;64.33;;;32.07;;
18383;SDS011;9318;48.644;9.456;2022-12-18T11:45:03;63.17;;;31.40;;
18383;SDS011;9318;48.644;9.456;2022-12-18T11:47:49;60.87;;;31.20;;
18383;SDS011;9318;48.644;9.456;2022-12-18T11:50:21;66.73;;;33.77;;
18383;SDS011;9318;48.644;9.456;2022-12-18T11:52:51;64.80;;;33.50;;
18383;SDS011;9318;48.644;9.456;2022-12-18T11:55:27;58.87;;;31.80;;
18383;SDS011;9318;48.644;9.456;2022-12-18T11:58:02;63.50;;;32.80;;
18383;SDS011;9318;48.644;9.456;2022-12-18T12:00:37;65.60;;;32.83;;
18383;SDS011;9318;48.644;9.456;2022-12-18T12:06:24;65.63;;;32.97;;
18383;SDS011;9318;48.644;9.456;2022-12-18T12:09:01;63.33;;;34.13;;
18383;SDS011;9318;48.644;9.456;2022-12-18T12:11:39;59.27;;;31.33;;
18383;SDS011;9318;48.644;9.456;2022-12-18T12:14:22;65.17;;;32.23;;
18383;SDS011;9318;48.644;9.456;2022-12-18T12:17:01;64.83;;;32.43;;
18383;SDS011;9318;48.644;9.456;2022-12-18T12:19:38;67.17;;;34.97;;
18383;SDS011;9318;48.644;9.456;2022-12-18T12:22:13;69.43;;;34.00;;
18383;SDS011;9318;48.644;9.456;2022-12-18T12:24:51;62.77;;;31.57;;
18383;SDS011;9318;48.644;9.456;2022-12-18T12:27:30;64.00;;;31.67;;
18383;SDS011;9318;48.644;9.456;2022-12-18T12:30:08;62.83;;;31.47;;
18383;SDS011;9318;48.644;9.456;2022-12-18T12:32:46;59.93;;;30.30;;
18383;SDS011;9318;48.644;9.456;2022-12-18T12:35:26;62.40;;;30.60;;
18383;SDS011;9318;48.644;9.456;2022-12-18T12:38:05;58.87;;;30.50;;
18383;SDS011;9318;48.644;9.456;2022-12-18T12:40:37;63.47;;;31.03;;
18383;SDS011;9318;48.644;9.456;2022-12-18T12:43:11;71.93;;;33.47;;
18383;SDS011;9318;48.644;9.456;2022-12-18T12:45:48;78.17;;;34.57;;
18383;SDS011;9318;48.644;9.456;2022-12-18T12:48:22;71.37;;;33.40;;
18383;SDS011;9318;48.644;9.456;2022-12-18T12:50:58;71.23;;;33.00;;
18383;SDS011;9318;48.644;9.456;2022-12-18T12:53:29;80.77;;;36.40;;
18383;SDS011;9318;48.644;9.456;2022-12-18T12:56:01;77.03;;;36.70;;
18383;SDS011;9318;48.644;9.456;2022-12-18T12:58:31;74.50;;;35.07;;
18383;SDS011;9318;48.644;9.456;2022-12-18T13:01:10;79.17;;;35.83;;
18383;SDS011;9318;48.644;9.456;2022-12-18T13:03:46;73.83;;;35.23;;
18383;SDS011;9318;48.644;9.456;2022-12-18T13:06:23;86.27;;;38.17;;
18383;SDS011;9318;48.644;9.456;2022-12-18T13:08:59;94.37;;;41.83;;
18383;SDS011;9318;48.644;9.456;2022-12-18T13:11:30;100.70;;;42.90;;
18383;SDS011;9318;48.644;9.456;2022-12-18T13:14:27;110.77;;;45.23;;
18383;SDS011;9318;48.644;9.456;2022-12-18T13:17:15;102.20;;;43.27;;
18383;SDS011;9318;48.644;9.456;2022-12-18T13:20:11;95.27;;;41.50;;
18383;SDS011;9318;48.644;9.456;2022-12-18T13:22:40;93.40;;;40.37;;
18383;SDS011;9318;48.644;9.456;2022-12-18T13:25:27;90.40;;;39.10;;
18383;SDS011;9318;48.644;9.456;2022-12-18T13:28:06;97.20;;;38.37;;
18383;SDS011;9318;48.644;9.456;2022-12-18T13:30:46;87.03;;;38.10;;
18383;SDS011;9318;48.644;9.456;2022-12-18T13:36:26;85.47;;;36.43;;
18383;SDS011;9318;48.644;9.456;2022-12-18T13:39:11;76.20;;;35.67;;
18383;SDS011;9318;48.644;9.456;2022-12-18T13:41:53;82.90;;;37.50;;
18383;SDS011;9318;48.644;9.456;2022-12-18T13:45:01;79.67;;;36.37;;
18383;SDS011;9318;48.644;9.456;2022-12-18T13:47:48;78.33;;;34.30;;
18383;SDS011;9318;48.644;9.456;2022-12-18T13:50:20;71.90;;;32.73;;
18383;SDS011;9318;48.644;9.456;2022-12-18T13:52:50;73.47;;;32.07;;
18383;SDS011;9318;48.644;9.456;2022-12-18T13:55:19;67.20;;;31.03;;
18383;SDS011;9318;48.644;9.456;2022-12-18T13:57:48;74.30;;;32.17;;
18383;SDS011;9318;48.644;9.456;2022-12-18T14:00:23;72.43;;;31.67;;
18383;SDS011;9318;48.644;9.456;2022-12-18T14:02:54;65.67;;;29.67;;
18383;SDS011;9318;48.644;9.456;2022-12-18T14:05:23;66.63;;;29.10;;
18383;SDS011;9318;48.644;9.456;2022-12-18T14:07:52;66.83;;;30.30;;
18383;SDS011;9318;48.644;9.456;2022-12-18T14:10:19;65.93;;;29.83;;
18383;SDS011;9318;48.644;9.456;2022-12-18T14:12:48;72.40;;;31.93;;
18383;SDS011;9318;48.644;9.456;2022-12-18T14:15:24;62.27;;;29.17;;
18383;SDS011;9318;48.644;9.456;2022-12-18T14:17:59;69.63;;;31.07;;
18383;SDS011;9318;48.644;9.456;2022-12-18T14:20:29;69.87;;;29.37;;
18383;SDS011;9318;48.644;9.456;2022-12-18T14:22:59;68.13;;;30.00;;
18383;SDS011;9318;48.644;9.456;2022-12-18T14:25:27;65.90;;;29.83;;
18383;SDS011;9318;48.644;9.456;2022-12-18T14:28:02;66.23;;;29.77;;
18383;SDS011;9318;48.644;9.456;2022-12-18T14:30:38;75.17;;;32.37;;
18383;SDS011;9318;48.644;9.456;2022-12-18T14:33:09;71.60;;;30.37;;
18383;SDS011;9318;48.644;9.456;2022-12-18T14:35:39;70.80;;;32.33;;
18383;SDS011;9318;48.644;9.456;2022-12-18T14:38:17;64.90;;;31.27;;
18383;SDS011;9318;48.644;9.456;2022-12-18T14:40:47;75.20;;;32.57;;
18383;SDS011;9318;48.644;9.456;2022-12-18T14:43:19;68.50;;;32.10;;
18383;SDS011;9318;48.644;9.456;2022-12-18T14:45:46;67.43;;;30.50;;
18383;SDS011;9318;48.644;9.456;2022-12-18T14:48:16;63.90;;;29.73;;
18383;SDS011;9318;48.644;9.456;2022-12-18T14:50:53;68.67;;;30.87;;
18383;SDS011;9318;48.644;9.456;2022-12-18T14:53:23;66.43;;;29.53;;
18383;SDS011;9318;48.644;9.456;2022-12-18T14:56:02;69.47;;;30.27;;
18383;SDS011;9318;48.644;9.456;2022-12-18T14:58:30;65.90;;;28.90;;
18383;SDS011;9318;48.644;9.456;2022-12-18T15:00:58;69.77;;;30.60;;
18383;SDS011;9318;48.644;9.456;2022-12-18T15:03:25;67.77;;;29.80;;
18383;SDS011;9318;48.644;9.456;2022-12-18T15:05:54;79.83;;;32.57;;
18383;SDS011;9318;48.644;9.456;2022-12-18T15:08:29;68.03;;;31.57;;